Time;durP1;ratioP1;P1;durP2;ratioP2;P2;SDS_P1;SDS_P2;PMS_P1;PMS_P2;Temp;Humidity;BMP_temperature;BMP_pressure;BME280_temperature;BME280_humidity;BME280_pressure;Samples;Min_cycle;Max_cycle;Signal;HPM_P1;HPM_P2
2022/09/03 00:02:34;;;;;;;1.67;1.08;;;15.70;99.90;;;;;;5024361;28;20049;-79
2022/09/03 00:05:20;;;;;;;6.93;1.08;;;15.60;99.90;;;;;;5028536;28;20033;-79
2022/09/03 00:07:59;;;;;;;7.78;1.50;;;15.40;99.90;;;;;;5018236;28;20103;-79
2022/09/03 00:10:46;;;;;;;7.43;1.23;;;15.30;99.90;;;;;;5022282;28;20386;-79
2022/09/03 00:13:27;;;;;;;2.25;1.15;;;15.20;99.90;;;;;;4997062;28;20033;-79
2022/09/03 00:15:55;;;;;;;1.90;1.13;;;15.10;99.90;;;;;;5024111;28;20033;-79
2022/09/03 00:18:27;;;;;;;0.93;0.93;;;15.10;99.90;;;;;;5025517;28;20108;-79
2022/09/03 00:21:07;;;;;;;2.95;1.00;;;15.00;99.90;;;;;;5023873;28;20134;-78
2022/09/03 00:23:39;;;;;;;2.58;1.13;;;14.90;99.90;;;;;;5020210;28;20142;-78
2022/09/03 00:26:13;;;;;;;4.15;1.15;;;14.80;99.90;;;;;;5024346;28;20025;-78
2022/09/03 00:29:02;;;;;;;2.10;0.90;;;14.70;99.90;;;;;;5024538;28;20022;-78
2022/09/03 00:31:50;;;;;;;4.35;0.98;;;14.60;99.90;;;;;;5022264;28;20037;-79
2022/09/03 00:34:20;;;;;;;3.25;1.02;;;14.50;99.90;;;;;;5026058;28;20479;-79
2022/09/03 00:36:46;;;;;;;1.65;1.10;;;14.40;99.90;;;;;;5021959;28;20108;-79
2022/09/03 00:39:15;;;;;;;1.83;1.10;;;14.30;99.90;;;;;;5028468;28;20132;-78
2022/09/03 00:42:14;;;;;;;1.65;1.00;;;14.20;99.90;;;;;;5018756;28;20037;-80
2022/09/03 00:45:09;;;;;;;1.30;1.20;;;14.20;99.90;;;;;;5022546;28;20021;-78
2022/09/03 00:47:43;;;;;;;3.90;1.20;;;14.30;99.90;;;;;;5019487;28;20034;-79
2022/09/03 00:50:37;;;;;;;2.60;1.40;;;14.30;99.90;;;;;;5025504;28;20560;-78
2022/09/03 00:53:21;;;;;;;5.25;1.17;;;14.40;99.90;;;;;;5027811;28;20034;-79
2022/09/03 00:55:57;;;;;;;1.83;1.25;;;14.50;99.90;;;;;;5015634;28;20034;-79
2022/09/03 00:58:54;;;;;;;3.00;1.50;;;14.60;99.90;;;;;;5015008;28;20120;-78
2022/09/03 01:01:28;;;;;;;1.35;1.10;;;14.70;99.90;;;;;;5024186;28;20140;-78
2022/09/03 01:04:20;;;;;;;3.78;1.60;;;14.80;99.90;;;;;;5029994;28;20120;-78
2022/09/03 01:06:57;;;;;;;2.70;1.40;;;14.80;99.90;;;;;;4981113;28;20498;-79
2022/09/03 01:09:47;;;;;;;3.70;1.50;;;14.80;99.90;;;;;;5025566;28;20112;-78
2022/09/03 01:12:29;;;;;;;3.63;1.27;;;14.90;99.90;;;;;;5016013;28;20029;-79
2022/09/03 01:14:57;;;;;;;2.25;1.48;;;14.90;99.90;;;;;;4935689;28;20345;-79
2022/09/03 01:17:29;;;;;;;7.70;1.50;;;14.90;99.90;;;;;;4928455;28;20087;-79
2022/09/03 01:20:24;;;;;;;3.45;1.65;;;14.90;99.90;;;;;;4987849;28;20067;-79
2022/09/03 01:23:19;;;;;;;5.40;1.20;;;14.90;99.90;;;;;;5024690;28;20037;-79
2022/09/03 01:25:53;;;;;;;3.00;1.20;;;14.90;99.90;;;;;;5025401;28;20041;-81
2022/09/03 01:28:53;;;;;;;2.35;1.45;;;14.90;99.90;;;;;;5020723;28;20030;-80
2022/09/03 01:31:50;;;;;;;4.28;1.40;;;14.90;99.90;;;;;;5021115;28;20053;-79
2022/09/03 01:34:41;;;;;;;2.30;1.33;;;14.90;99.90;;;;;;4991140;28;20035;-79
2022/09/03 01:37:38;;;;;;;9.32;1.50;;;14.90;99.90;;;;;;4953868;28;20032;-80
2022/09/03 01:40:18;;;;;;;1.92;1.45;;;15.00;99.90;;;;;;4924727;28;20248;-79
2022/09/03 01:43:16;;;;;;;4.25;1.80;;;15.10;99.90;;;;;;4969071;28;20084;-80
2022/09/03 01:45:53;;;;;;;4.30;1.90;;;15.10;99.90;;;;;;5023243;28;20026;-79
2022/09/03 01:48:29;;;;;;;3.08;1.63;;;15.20;99.90;;;;;;5024702;28;20463;-79
2022/09/03 01:51:20;;;;;;;2.45;1.38;;;15.20;99.90;;;;;;5022396;28;20102;-79
2022/09/03 01:54:19;;;;;;;3.05;1.27;;;15.30;99.90;;;;;;5022401;28;20025;-80
2022/09/03 01:57:23;;;;;;;1.63;1.27;;;15.30;99.90;;;;;;5019355;28;20032;-79
2022/09/03 02:00:04;;;;;;;3.17;1.27;;;15.40;99.90;;;;;;5024116;28;20311;-79
2022/09/03 02:02:31;;;;;;;4.07;1.80;;;15.40;99.90;;;;;;5013154;28;20053;-81
2022/09/03 02:05:08;;;;;;;2.67;1.35;;;15.40;99.90;;;;;;5024637;28;20029;-79
2022/09/03 02:07:47;;;;;;;3.33;1.38;;;15.50;99.90;;;;;;5026512;28;20037;-79
2022/09/03 02:10:20;;;;;;;8.05;1.75;;;15.50;99.90;;;;;;5011923;28;20044;-79
2022/09/03 02:12:51;;;;;;;4.70;1.38;;;15.50;99.90;;;;;;5016581;28;20122;-79
2022/09/03 02:15:20;;;;;;;5.53;1.40;;;15.50;99.90;;;;;;5021939;28;20652;-79
2022/09/03 02:17:48;;;;;;;2.33;1.38;;;15.50;99.90;;;;;;5022143;28;20103;-80
2022/09/03 02:20:20;;;;;;;1.95;1.23;;;15.50;99.90;;;;;;5021921;28;20426;-80
2022/09/03 02:22:47;;;;;;;1.80;1.35;;;15.60;99.90;;;;;;5025195;28;20025;-80
2022/09/03 02:25:13;;;;;;;2.88;1.38;;;15.50;99.90;;;;;;5017216;28;20026;-80
2022/09/03 02:27:39;;;;;;;1.90;1.10;;;15.60;99.90;;;;;;5019462;28;20030;-79
2022/09/03 02:30:06;;;;;;;3.40;1.33;;;15.50;99.90;;;;;;5018397;28;20029;-79
2022/09/03 02:32:31;;;;;;;3.33;1.15;;;15.50;99.90;;;;;;5024346;28;20033;-79
2022/09/03 02:34:58;;;;;;;2.45;1.45;;;15.60;99.90;;;;;;5020773;28;20029;-80
2022/09/03 02:37:24;;;;;;;3.88;1.73;;;15.60;99.90;;;;;;5019391;28;20096;-80
2022/09/03 02:39:53;;;;;;;3.08;1.48;;;15.60;99.90;;;;;;5007062;28;20026;-80
2022/09/03 02:42:19;;;;;;;5.20;1.35;;;15.60;99.90;;;;;;5004118;28;20042;-79
2022/09/03 02:44:50;;;;;;;1.50;1.25;;;15.50;99.90;;;;;;5008777;28;20382;-81
2022/09/03 02:47:16;;;;;;;2.13;1.50;;;15.50;99.90;;;;;;4995004;28;20030;-80
2022/09/03 02:49:42;;;;;;;5.25;1.10;;;15.50;99.90;;;;;;5005227;28;20026;-80
2022/09/03 02:52:10;;;;;;;11.02;1.45;;;15.50;99.90;;;;;;5005426;28;20030;-80
2022/09/03 02:54:38;;;;;;;3.35;1.33;;;15.50;99.90;;;;;;5008473;28;20034;-81
2022/09/03 02:57:09;;;;;;;2.28;1.15;;;15.50;99.90;;;;;;5002526;28;20503;-80
2022/09/03 02:59:35;;;;;;;3.35;1.08;;;15.50;99.90;;;;;;5009105;28;20046;-79
2022/09/03 03:02:01;;;;;;;3.05;1.23;;;15.50;99.90;;;;;;5006865;28;20091;-80
2022/09/03 03:04:29;;;;;;;2.90;1.40;;;15.40;99.90;;;;;;5008506;28;20022;-79
2022/09/03 03:06:54;;;;;;;1.90;1.27;;;15.40;99.90;;;;;;4997064;28;20061;-79
2022/09/03 03:09:20;;;;;;;4.45;1.17;;;15.30;99.90;;;;;;5008296;28;20069;-79
2022/09/03 03:11:45;;;;;;;4.03;1.10;;;15.30;99.90;;;;;;5001358;28;20227;-80
2022/09/03 03:14:11;;;;;;;1.95;1.20;;;15.30;99.90;;;;;;5008266;28;20022;-80
2022/09/03 03:16:37;;;;;;;2.15;1.17;;;15.30;99.90;;;;;;5003244;28;20045;-79
2022/09/03 03:19:03;;;;;;;2.30;1.60;;;15.30;99.90;;;;;;5008362;28;20024;-79
2022/09/03 03:21:28;;;;;;;1.45;1.10;;;15.40;99.90;;;;;;5002270;28;20430;-79
2022/09/03 03:23:54;;;;;;;4.95;1.23;;;15.30;99.90;;;;;;5006685;28;20033;-79
2022/09/03 03:26:22;;;;;;;1.00;0.90;;;15.20;99.90;;;;;;5005969;28;20057;-79
2022/09/03 03:28:49;;;;;;;4.28;1.42;;;15.20;99.90;;;;;;5005375;28;20038;-79
2022/09/03 03:31:17;;;;;;;2.33;1.23;;;15.10;99.90;;;;;;5004169;28;20030;-80
2022/09/03 03:33:43;;;;;;;2.17;1.17;;;15.00;99.90;;;;;;5004137;28;20368;-80
2022/09/03 03:36:12;;;;;;;1.55;1.15;;;15.00;99.90;;;;;;5005771;28;20080;-79
2022/09/03 03:38:39;;;;;;;2.00;1.00;;;14.90;99.90;;;;;;5012069;28;20525;-79
2022/09/03 03:41:11;;;;;;;6.28;1.48;;;14.80;99.90;;;;;;5022720;28;20041;-80
2022/09/03 03:43:38;;;;;;;3.92;1.67;;;14.70;99.90;;;;;;5022235;28;20048;-79
2022/09/03 03:46:04;;;;;;;6.07;1.67;;;14.50;99.90;;;;;;5022281;28;20029;-79
2022/09/03 03:48:30;;;;;;;3.60;1.35;;;14.50;99.90;;;;;;5029724;28;20080;-80
2022/09/03 03:51:01;;;;;;;2.47;1.52;;;14.30;99.90;;;;;;5014372;28;20064;-79
2022/09/03 03:53:27;;;;;;;2.17;1.02;;;14.20;99.90;;;;;;4994378;28;20507;-79
2022/09/03 03:55:58;;;;;;;1.25;0.98;;;14.10;99.90;;;;;;5027071;28;20053;-79
2022/09/03 03:58:24;;;;;;;6.57;1.40;;;13.90;99.90;;;;;;5016564;28;20041;-79
2022/09/03 04:00:52;;;;;;;6.15;1.85;;;13.80;99.90;;;;;;4984752;28;20277;-79
2022/09/03 04:03:18;;;;;;;2.58;1.30;;;13.80;99.90;;;;;;5024323;28;20036;-79
2022/09/03 04:05:58;;;;;;;5.55;2.33;;;13.60;99.90;;;;;;5023558;28;20029;-80
2022/09/03 04:08:24;;;;;;;3.58;1.48;;;13.60;99.90;;;;;;5026901;28;20022;-79
2022/09/03 04:10:50;;;;;;;2.50;1.50;;;13.50;99.90;;;;;;5009452;28;20034;-79
2022/09/03 04:13:22;;;;;;;2.90;1.30;;;13.40;99.90;;;;;;5026332;28;20029;-79
2022/09/03 04:15:48;;;;;;;2.72;1.33;;;13.30;99.90;;;;;;4978140;28;20033;-78
2022/09/03 04:18:13;;;;;;;6.90;0.95;;;13.20;99.90;;;;;;5023403;28;20062;-79
2022/09/03 04:20:39;;;;;;;2.70;1.40;;;13.20;99.90;;;;;;5024570;28;20363;-79
2022/09/03 04:23:05;;;;;;;2.60;1.30;;;13.10;99.90;;;;;;5015198;28;20029;-79
2022/09/03 04:25:30;;;;;;;3.70;1.50;;;13.10;99.90;;;;;;5021034;28;20076;-79
2022/09/03 04:27:56;;;;;;;1.58;1.13;;;13.10;99.90;;;;;;5029978;28;20021;-79
2022/09/03 04:30:22;;;;;;;1.33;0.98;;;13.00;99.90;;;;;;5026822;28;20515;-79
2022/09/03 04:32:54;;;;;;;5.05;1.50;;;12.90;99.90;;;;;;5016356;28;20121;-79
2022/09/03 04:35:21;;;;;;;2.05;1.48;;;12.90;99.90;;;;;;5019787;28;20028;-79
2022/09/03 04:37:47;;;;;;;2.47;1.50;;;12.90;99.90;;;;;;5025205;28;20121;-79
2022/09/03 04:40:13;;;;;;;5.70;1.42;;;12.80;99.90;;;;;;4992349;28;20168;-79
2022/09/03 04:42:38;;;;;;;9.10;1.85;;;12.80;99.90;;;;;;5010069;28;20052;-79
2022/09/03 04:45:05;;;;;;;7.50;1.90;;;12.70;99.90;;;;;;5020462;28;20052;-79
2022/09/03 04:47:30;;;;;;;4.55;1.52;;;12.70;99.90;;;;;;5024366;28;20025;-79
2022/09/03 04:49:56;;;;;;;3.38;1.60;;;12.60;99.90;;;;;;4993648;28;20041;-79
2022/09/03 04:52:23;;;;;;;3.80;1.40;;;12.60;99.90;;;;;;5027653;28;20033;-79
2022/09/03 04:54:48;;;;;;;3.10;1.38;;;12.60;99.90;;;;;;5029110;28;20108;-79
2022/09/03 04:57:14;;;;;;;6.47;2.20;;;12.50;99.90;;;;;;5020995;28;20128;-79
2022/09/03 04:59:41;;;;;;;3.72;1.50;;;12.50;99.90;;;;;;5025419;28;20107;-79
2022/09/03 05:02:07;;;;;;;4.43;1.50;;;12.50;99.90;;;;;;5019939;28;20038;-79
2022/09/03 05:04:32;;;;;;;3.72;1.50;;;12.50;99.90;;;;;;5021093;28;20410;-79
2022/09/03 05:06:58;;;;;;;8.43;1.58;;;12.50;99.90;;;;;;5024005;28;20083;-79
2022/09/03 05:09:24;;;;;;;7.45;1.40;;;12.50;99.90;;;;;;5028043;28;20033;-79
2022/09/03 05:11:49;;;;;;;2.00;1.33;;;12.50;99.90;;;;;;5025977;28;20033;-79
2022/09/03 05:14:15;;;;;;;3.65;1.70;;;12.40;99.90;;;;;;5022703;28;20061;-80
2022/09/03 05:16:41;;;;;;;6.65;1.88;;;12.40;99.90;;;;;;5025106;28;20026;-78
2022/09/03 05:19:06;;;;;;;4.25;1.70;;;12.40;99.90;;;;;;5023747;28;20092;-79
2022/09/03 05:21:36;;;;;;;3.65;1.48;;;12.40;99.90;;;;;;5028627;28;20061;-79
2022/09/03 05:24:03;;;;;;;12.65;2.28;;;12.50;99.90;;;;;;5022755;28;20173;-79
2022/09/03 05:26:31;;;;;;;6.07;1.85;;;12.50;99.90;;;;;;5027102;28;20040;-79
2022/09/03 05:28:59;;;;;;;4.88;1.70;;;12.50;99.90;;;;;;5027311;28;20026;-79
2022/09/03 05:31:27;;;;;;;2.42;1.55;;;12.50;99.90;;;;;;5026343;28;20052;-79
2022/09/03 05:33:57;;;;;;;7.10;2.13;;;12.50;99.90;;;;;;5025743;28;20037;-79
2022/09/03 05:36:24;;;;;;;2.97;1.33;;;12.50;99.90;;;;;;5025213;28;20036;-79
2022/09/03 05:38:53;;;;;;;8.70;1.52;;;12.60;99.90;;;;;;5014487;28;20046;-79
2022/09/03 05:41:20;;;;;;;5.65;1.92;;;12.50;99.90;;;;;;4965139;28;20069;-79
2022/09/03 05:43:53;;;;;;;2.25;1.42;;;12.60;99.90;;;;;;5007935;28;20088;-80
2022/09/03 05:46:20;;;;;;;4.07;1.17;;;12.60;99.90;;;;;;5005876;28;20030;-79
2022/09/03 05:48:46;;;;;;;2.30;1.30;;;12.70;99.90;;;;;;4995093;28;20470;-80
2022/09/03 05:51:15;;;;;;;5.22;1.77;;;12.80;99.90;;;;;;4980898;28;20128;-79
2022/09/03 05:53:42;;;;;;;6.97;1.80;;;12.70;99.90;;;;;;5001754;28;20038;-78
2022/09/03 05:56:10;;;;;;;7.30;1.60;;;12.80;99.90;;;;;;5000971;28;20386;-79
2022/09/03 05:58:40;;;;;;;4.07;2.38;;;12.80;99.90;;;;;;5006893;28;20038;-79
2022/09/03 06:01:13;;;;;;;3.75;2.25;;;12.90;99.90;;;;;;5002656;28;20096;-79
2022/09/03 06:03:39;;;;;;;4.25;2.10;;;13.00;99.90;;;;;;5005174;28;20487;-79
2022/09/03 06:06:06;;;;;;;5.68;1.85;;;13.10;99.90;;;;;;5006677;28;20423;-79
2022/09/03 06:08:32;;;;;;;6.20;2.03;;;13.20;99.90;;;;;;5003281;28;20344;-79
2022/09/03 06:10:59;;;;;;;5.35;1.90;;;13.20;99.90;;;;;;5000359;28;20096;-79
2022/09/03 06:13:24;;;;;;;3.90;1.98;;;13.30;99.90;;;;;;4982030;28;20026;-79
2022/09/03 06:15:54;;;;;;;2.00;1.80;;;13.40;99.90;;;;;;4999006;28;20122;-78
2022/09/03 06:18:20;;;;;;;9.85;2.35;;;13.40;99.90;;;;;;5004282;28;20037;-79
2022/09/03 06:20:56;;;;;;;4.75;1.90;;;13.50;99.90;;;;;;5008706;28;20120;-79
2022/09/03 06:23:23;;;;;;;7.78;2.05;;;13.60;99.90;;;;;;4996919;28;20062;-79
2022/09/03 06:26:06;;;;;;;6.85;1.90;;;13.60;99.90;;;;;;4998990;28;20109;-79
2022/09/03 06:28:37;;;;;;;6.80;2.00;;;13.80;99.90;;;;;;4993204;28;20022;-79
2022/09/03 06:31:05;;;;;;;2.90;1.63;;;13.80;99.90;;;;;;5003952;28;20030;-79
2022/09/03 06:33:33;;;;;;;6.80;1.65;;;13.90;99.90;;;;;;5001025;28;20030;-79
2022/09/03 06:36:00;;;;;;;3.75;1.70;;;14.00;99.90;;;;;;5006475;28;20050;-80
2022/09/03 06:38:28;;;;;;;5.47;2.00;;;14.10;99.90;;;;;;5006730;28;20053;-78
2022/09/03 06:40:55;;;;;;;7.78;1.85;;;14.20;99.90;;;;;;4982615;28;20068;-79
2022/09/03 06:43:22;;;;;;;4.88;1.75;;;14.30;99.90;;;;;;5018196;28;20021;-79
2022/09/03 06:45:58;;;;;;;3.80;1.85;;;14.40;99.90;;;;;;5025578;28;20033;-79
2022/09/03 06:48:25;;;;;;;4.13;1.60;;;14.60;99.90;;;;;;5017258;28;20128;-79
2022/09/03 06:50:57;;;;;;;1.88;1.52;;;14.70;99.90;;;;;;5026068;28;20508;-79
2022/09/03 06:53:28;;;;;;;2.47;1.83;;;14.90;99.90;;;;;;5022829;28;20117;-79
2022/09/03 06:56:09;;;;;;;2.80;1.50;;;14.90;99.90;;;;;;5023147;28;20028;-79
2022/09/03 06:58:43;;;;;;;5.90;1.50;;;15.00;99.90;;;;;;5020681;28;20026;-80
2022/09/03 07:01:11;;;;;;;3.30;1.90;;;15.10;99.90;;;;;;5021392;28;20041;-79
2022/09/03 07:03:38;;;;;;;6.35;1.67;;;15.10;99.90;;;;;;5024365;28;20456;-78
2022/09/03 07:06:07;;;;;;;5.43;1.80;;;15.20;99.90;;;;;;5024768;28;20556;-79
2022/09/03 07:08:33;;;;;;;5.18;1.70;;;15.30;99.90;;;;;;5024245;28;20541;-79
2022/09/03 07:11:05;;;;;;;1.80;1.25;;;15.40;99.90;;;;;;5019736;28;20060;-80
2022/09/03 07:13:32;;;;;;;4.25;1.95;;;15.50;99.90;;;;;;5015901;28;20032;-80
2022/09/03 07:16:04;;;;;;;2.78;1.58;;;15.50;99.90;;;;;;5023137;28;20025;-79
2022/09/03 07:18:30;;;;;;;2.85;1.50;;;15.60;99.90;;;;;;5004970;28;20039;-81
2022/09/03 07:21:01;;;;;;;2.65;1.75;;;15.70;99.90;;;;;;4983959;28;20033;-79
2022/09/03 07:23:28;;;;;;;9.63;1.75;;;15.80;99.90;;;;;;5026129;28;20040;-79
2022/09/03 07:26:00;;;;;;;3.17;1.60;;;15.80;99.90;;;;;;4986204;28;20064;-79
2022/09/03 07:28:27;;;;;;;3.33;1.35;;;15.90;99.90;;;;;;5025532;28;20030;-79
2022/09/03 07:30:53;;;;;;;3.38;1.40;;;15.90;99.90;;;;;;5016231;28;20044;-79
2022/09/03 07:33:20;;;;;;;3.13;1.52;;;16.10;99.90;;;;;;5024306;28;20057;-80
2022/09/03 07:35:46;;;;;;;8.57;2.17;;;16.10;99.90;;;;;;5027523;28;20428;-80
2022/09/03 07:38:17;;;;;;;2.50;1.27;;;16.10;99.90;;;;;;5021484;28;20549;-79
2022/09/03 07:40:43;;;;;;;6.00;1.73;;;16.20;99.90;;;;;;5019185;28;20099;-79
2022/09/03 07:43:09;;;;;;;3.33;1.60;;;16.20;99.90;;;;;;5027433;28;20398;-80
2022/09/03 07:45:36;;;;;;;7.68;2.65;;;16.30;99.90;;;;;;5020152;28;20084;-79
2022/09/03 07:48:02;;;;;;;2.72;1.65;;;16.40;99.90;;;;;;5027046;28;20031;-80
2022/09/03 07:50:31;;;;;;;2.95;1.80;;;16.50;99.90;;;;;;5028750;28;20072;-80
2022/09/03 07:52:57;;;;;;;2.63;1.27;;;16.60;99.90;;;;;;5013767;28;20498;-78
2022/09/03 07:55:23;;;;;;;2.33;1.40;;;16.70;99.90;;;;;;5030131;28;20029;-78
2022/09/03 07:57:49;;;;;;;5.00;1.80;;;16.70;99.90;;;;;;5026480;28;20029;-78
2022/09/03 08:00:35;;;;;;;1.75;1.38;;;16.80;99.90;;;;;;5021662;28;20138;-79
2022/09/03 08:03:04;;;;;;;15.18;3.47;;;16.90;99.90;;;;;;5028534;28;20053;-79
2022/09/03 08:05:32;;;;;;;4.88;1.67;;;17.00;99.90;;;;;;5028741;28;20693;-79
2022/09/03 08:08:00;;;;;;;4.03;1.73;;;17.10;99.90;;;;;;5023201;28;20098;-79
2022/09/03 08:10:29;;;;;;;5.75;1.48;;;17.30;99.90;;;;;;5023402;28;20030;-78
2022/09/03 08:12:55;;;;;;;6.55;1.95;;;17.30;99.90;;;;;;5014013;28;20034;-78
2022/09/03 08:15:20;;;;;;;11.25;1.60;;;17.40;99.90;;;;;;5020119;28;20540;-79
2022/09/03 08:17:46;;;;;;;6.28;1.40;;;17.50;99.90;;;;;;4998862;28;20024;-79
2022/09/03 08:20:11;;;;;;;2.88;1.25;;;17.60;99.90;;;;;;4995060;28;20030;-78
2022/09/03 08:22:37;;;;;;;2.40;1.00;;;17.70;99.90;;;;;;5023933;28;20037;-78
2022/09/03 08:25:03;;;;;;;3.00;1.60;;;17.80;99.90;;;;;;5022679;28;20025;-79
2022/09/03 08:27:30;;;;;;;4.38;1.67;;;17.80;99.90;;;;;;5028506;28;20029;-81
2022/09/03 08:29:56;;;;;;;9.77;1.60;;;17.80;99.90;;;;;;5024016;28;20033;-78
2022/09/03 08:32:21;;;;;;;4.60;1.40;;;17.90;99.90;;;;;;5020850;28;20025;-79
2022/09/03 08:34:47;;;;;;;5.13;1.40;;;17.90;99.90;;;;;;5031372;28;20345;-79
2022/09/03 08:37:12;;;;;;;8.13;1.55;;;18.00;99.90;;;;;;5021139;28;20034;-81
2022/09/03 08:39:38;;;;;;;9.82;1.50;;;18.10;99.90;;;;;;5018944;28;20069;-78
2022/09/03 08:42:35;;;;;;;5.32;1.42;;;18.20;99.90;;;;;;5021520;28;20540;-79
2022/09/03 08:45:05;;;;;;;2.45;1.15;;;18.30;99.90;;;;;;5023805;28;20084;-79
2022/09/03 08:47:47;;;;;;;3.78;1.63;;;18.30;99.90;;;;;;5021318;28;20022;-80
2022/09/03 08:50:26;;;;;;;5.18;1.30;;;18.40;99.90;;;;;;5004739;28;20041;-79
2022/09/03 08:53:00;;;;;;;1.95;1.10;;;18.40;99.10;;;;;;5013066;28;20046;-77
2022/09/03 08:55:43;;;;;;;3.90;1.63;;;18.50;97.60;;;;;;5004712;28;20040;-78
2022/09/03 08:58:09;;;;;;;3.40;1.80;;;18.60;96.20;;;;;;5029030;28;20173;-79
2022/09/03 09:01:00;;;;;;;6.95;2.05;;;18.60;95.80;;;;;;5030188;28;20116;-79
2022/09/03 09:04:03;;;;;;;5.95;1.35;;;18.70;94.80;;;;;;5025216;28;20391;-79
2022/09/03 09:06:46;;;;;;;6.30;1.20;;;18.70;93.10;;;;;;5028835;28;20474;-79
2022/09/03 09:09:34;;;;;;;2.67;1.38;;;18.70;90.60;;;;;;5022035;28;20033;-80
2022/09/03 09:12:37;;;;;;;7.80;1.30;;;18.80;86.40;;;;;;5021554;28;20057;-79
2022/09/03 09:15:11;;;;;;;4.57;1.10;;;18.80;84.20;;;;;;5021682;28;20026;-79
2022/09/03 09:17:58;;;;;;;2.97;0.95;;;18.90;80.20;;;;;;5020431;28;20387;-78
2022/09/03 09:21:00;;;;;;;4.75;1.13;;;18.90;76.40;;;;;;5021188;28;20032;-79
2022/09/03 09:23:34;;;;;;;3.33;0.90;;;19.00;76.80;;;;;;5002352;28;20041;-79
2022/09/03 09:26:09;;;;;;;9.52;1.20;;;19.10;74.60;;;;;;5030489;28;20099;-79
2022/09/03 09:28:37;;;;;;;3.78;1.13;;;19.10;76.30;;;;;;5024360;28;20796;-79
2022/09/03 09:31:06;;;;;;;2.50;1.20;;;19.20;77.50;;;;;;5030230;28;20030;-79
2022/09/03 09:33:33;;;;;;;2.33;0.90;;;19.30;77.00;;;;;;5025319;28;20045;-79
2022/09/03 09:36:11;;;;;;;5.43;1.38;;;19.40;78.30;;;;;;5020224;28;20391;-81
2022/09/03 09:38:38;;;;;;;9.52;2.63;;;19.40;72.70;;;;;;5022191;28;20045;-78
2022/09/03 09:41:28;;;;;;;1.30;1.00;;;19.50;73.00;;;;;;5029081;28;20553;-79
2022/09/03 09:44:01;;;;;;;6.90;1.77;;;19.50;70.50;;;;;;5027015;28;20064;-79
2022/09/03 09:46:34;;;;;;;5.68;1.67;;;19.60;69.80;;;;;;4973481;28;20490;-78
2022/09/03 09:49:00;;;;;;;4.00;1.58;;;19.60;67.20;;;;;;4982448;28;20034;-80
2022/09/03 09:51:30;;;;;;;9.73;1.30;;;19.70;66.30;;;;;;5019536;28;20112;-78
2022/09/03 09:54:12;;;;;;;3.63;1.45;;;19.70;66.30;;;;;;5024835;28;20121;-79
2022/09/03 09:56:37;;;;;;;1.90;1.17;;;19.70;67.60;;;;;;5025779;28;20033;-79
2022/09/03 09:59:08;;;;;;;5.13;1.40;;;19.80;68.60;;;;;;5018654;28;20079;-79
2022/09/03 10:01:38;;;;;;;1.75;1.25;;;19.80;67.60;;;;;;5028492;28;20446;-79
2022/09/03 10:04:26;;;;;;;4.30;1.38;;;19.80;65.40;;;;;;5018943;28;20055;-79
2022/09/03 10:07:04;;;;;;;1.77;0.90;;;19.80;66.40;;;;;;5023741;28;20037;-78
2022/09/03 10:09:31;;;;;;;4.80;1.40;;;19.90;67.90;;;;;;5024427;28;20451;-79
2022/09/03 10:12:06;;;;;;;2.60;1.25;;;20.00;65.80;;;;;;5014313;28;20440;-79
2022/09/03 10:14:44;;;;;;;2.03;1.23;;;20.10;64.20;;;;;;5027958;28;20056;-79
2022/09/03 10:17:27;;;;;;;6.13;1.42;;;20.10;64.60;;;;;;5023999;28;20392;-78
2022/09/03 10:20:30;;;;;;;6.13;1.05;;;20.10;63.20;;;;;;5027525;28;20446;-79
2022/09/03 10:23:10;;;;;;;3.30;1.25;;;20.20;62.50;;;;;;5009768;28;20056;-78
2022/09/03 10:25:50;;;;;;;1.58;1.08;;;20.20;61.20;;;;;;5018628;28;20025;-79
2022/09/03 10:28:48;;;;;;;;;;;20.20;61.70;;;;;;5115011;27;20342;-81
2022/09/03 10:32:00;;;;;;;2.90;0.93;;;20.20;60.30;;;;;;5114841;27;20413;-80
2022/09/03 10:34:57;;;;;;;1.95;1.05;;;20.20;60.20;;;;;;5064607;28;20171;-80
2022/09/03 10:37:40;;;;;;;6.90;1.40;;;20.30;60.20;;;;;;5089591;28;20074;-80
2022/09/03 10:40:29;;;;;;;4.78;1.33;;;20.40;59.20;;;;;;5102115;28;20028;-79
2022/09/03 10:43:31;;;;;;;2.25;1.33;;;20.40;58.60;;;;;;5106454;28;20487;-79
2022/09/03 10:46:08;;;;;;;6.93;1.30;;;20.40;57.00;;;;;;5098182;28;20026;-79
2022/09/03 10:48:45;;;;;;;3.50;1.45;;;20.50;57.20;;;;;;5101828;28;20040;-80
2022/09/03 10:51:34;;;;;;;9.63;1.60;;;20.50;57.10;;;;;;5107126;28;20028;-79
2022/09/03 10:54:25;;;;;;;6.50;1.15;;;20.70;57.80;;;;;;5114954;27;20049;-81
2022/09/03 10:57:23;;;;;;;1.58;1.00;;;20.70;57.20;;;;;;5110394;28;20028;-80
2022/09/03 11:00:08;;;;;;;5.78;1.35;;;20.70;56.90;;;;;;5106293;28;20028;-80
2022/09/03 11:02:53;;;;;;;5.72;1.60;;;20.80;56.50;;;;;;5100579;28;20020;-80
2022/09/03 11:05:31;;;;;;;5.25;1.25;;;20.80;56.40;;;;;;5104171;28;20024;-80
2022/09/03 11:08:15;;;;;;;2.15;1.20;;;20.90;56.80;;;;;;5104242;28;20488;-80
2022/09/03 11:10:49;;;;;;;5.13;1.40;;;20.90;55.40;;;;;;5094466;28;20032;-82
2022/09/03 11:13:26;;;;;;;6.30;1.50;;;20.90;55.40;;;;;;5114264;28;20432;-82
2022/09/03 11:16:03;;;;;;;5.95;1.27;;;20.90;55.60;;;;;;5110311;28;20045;-79
2022/09/03 11:18:37;;;;;;;1.90;1.20;;;21.00;55.90;;;;;;5110467;28;20023;-81
2022/09/03 11:21:05;;;;;;;5.13;1.35;;;21.00;54.80;;;;;;5097391;28;20057;-80
2022/09/03 11:23:36;;;;;;;4.05;1.02;;;21.00;54.40;;;;;;5113729;28;20020;-80
2022/09/03 11:26:07;;;;;;;3.33;1.20;;;20.90;54.50;;;;;;5106196;28;20020;-80
2022/09/03 11:29:07;;;;;;;4.93;1.50;;;20.80;54.30;;;;;;5100592;28;20048;-79
2022/09/03 11:31:46;;;;;;;2.40;1.20;;;20.90;54.40;;;;;;5098661;28;20089;-79
2022/09/03 11:34:25;;;;;;;3.47;1.33;;;20.80;54.70;;;;;;5105572;28;20032;-79
2022/09/03 11:36:51;;;;;;;4.68;1.60;;;20.80;54.50;;;;;;5105212;28;20027;-80
2022/09/03 11:39:19;;;;;;;4.30;1.42;;;20.90;55.40;;;;;;5103526;28;20060;-80
2022/09/03 11:41:56;;;;;;;2.75;1.25;;;21.00;54.20;;;;;;5098023;28;20032;-81
2022/09/03 11:44:22;;;;;;;8.20;1.70;;;21.10;54.00;;;;;;5093286;28;20543;-79
2022/09/03 11:46:58;;;;;;;5.35;1.25;;;21.20;54.50;;;;;;5095955;28;20040;-80
2022/09/03 11:49:32;;;;;;;2.45;1.52;;;21.30;53.60;;;;;;5092333;28;20476;-80
2022/09/03 11:52:00;;;;;;;1.17;1.05;;;21.30;53.20;;;;;;5089286;28;20028;-80
2022/09/03 11:54:30;;;;;;;2.17;1.27;;;21.30;52.90;;;;;;5092102;28;20107;-80
2022/09/03 11:57:14;;;;;;;4.35;1.50;;;21.30;52.60;;;;;;5093883;28;20028;-80
2022/09/03 11:59:42;;;;;;;4.72;1.48;;;21.20;52.60;;;;;;5079156;28;20035;-80
2022/09/03 12:02:32;;;;;;;10.45;1.27;;;21.20;51.70;;;;;;5092559;28;20031;-80
2022/09/03 12:05:44;;;;;;;;;;;21.20;51.80;;;;;;5103764;27;20329;-80
2022/09/03 12:08:25;;;;;;;2.38;1.23;;;21.20;52.10;;;;;;5083569;28;19970;-80
2022/09/03 12:11:04;;;;;;;2.67;1.20;;;21.30;52.30;;;;;;5072393;28;20573;-80
2022/09/03 12:14:04;;;;;;;4.38;1.42;;;21.40;52.20;;;;;;5079117;28;20028;-81
2022/09/03 12:16:38;;;;;;;2.38;1.23;;;21.50;52.20;;;;;;5078711;28;20028;-82
2022/09/03 12:19:15;;;;;;;3.08;1.30;;;21.60;50.90;;;;;;5074901;28;20053;-80
2022/09/03 12:21:41;;;;;;;8.60;1.95;;;21.60;51.20;;;;;;5082284;28;20032;-80
2022/09/03 12:24:12;;;;;;;3.65;1.50;;;21.70;50.50;;;;;;5069443;28;20041;-80
2022/09/03 12:26:40;;;;;;;1.55;1.10;;;21.80;50.20;;;;;;5085915;28;20032;-80
2022/09/03 12:29:19;;;;;;;1.85;1.30;;;21.80;49.80;;;;;;5070533;28;20016;-80
2022/09/03 12:31:47;;;;;;;1.10;1.00;;;21.80;49.70;;;;;;5081181;28;20104;-81
2022/09/03 12:34:15;;;;;;;3.83;1.80;;;21.80;49.60;;;;;;5073592;28;20099;-81
2022/09/03 12:36:50;;;;;;;2.78;1.35;;;21.80;49.70;;;;;;5076561;28;20370;-80
2022/09/03 12:39:23;;;;;;;2.95;1.30;;;21.80;49.70;;;;;;5074499;28;20042;-81
2022/09/03 12:42:11;;;;;;;1.48;1.25;;;21.80;49.60;;;;;;5078239;28;20150;-80
2022/09/03 12:44:36;;;;;;;2.65;1.38;;;21.80;49.60;;;;;;5071030;28;20111;-80
2022/09/03 12:47:02;;;;;;;4.07;1.25;;;21.80;49.50;;;;;;5081563;28;20492;-79
2022/09/03 12:49:37;;;;;;;4.32;1.27;;;21.80;49.00;;;;;;5071448;28;20115;-80
2022/09/03 12:52:15;;;;;;;4.50;1.42;;;21.90;49.60;;;;;;5085449;28;20274;-80
2022/09/03 12:54:58;;;;;;;2.97;1.45;;;21.90;49.70;;;;;;5070137;28;20032;-80
2022/09/03 12:57:34;;;;;;;3.30;1.50;;;21.90;49.80;;;;;;5082804;28;20111;-80
2022/09/03 13:00:05;;;;;;;3.45;1.45;;;21.90;49.60;;;;;;5082174;28;20476;-80
2022/09/03 13:02:46;;;;;;;4.00;1.55;;;21.90;50.00;;;;;;5084841;28;20064;-80
2022/09/03 13:05:17;;;;;;;7.45;1.45;;;21.90;49.20;;;;;;5076664;28;20052;-80
2022/09/03 13:07:50;;;;;;;6.18;1.88;;;21.90;49.30;;;;;;5079471;28;20043;-82
2022/09/03 13:10:27;;;;;;;8.10;1.55;;;21.80;50.30;;;;;;5073129;28;20032;-82
2022/09/03 13:12:58;;;;;;;6.25;1.48;;;21.90;49.20;;;;;;5060111;28;20035;-79
2022/09/03 13:15:25;;;;;;;5.38;1.48;;;21.80;49.20;;;;;;5073012;28;20029;-80
2022/09/03 13:18:18;;;;;;;3.92;1.50;;;21.80;49.50;;;;;;5070537;28;20044;-80
2022/09/03 13:21:09;;;;;;;2.78;1.17;;;21.80;49.70;;;;;;5064271;28;20326;-81
2022/09/03 13:24:07;;;;;;;5.95;1.45;;;21.90;50.00;;;;;;5062008;28;20051;-81